White Sulphur Springs, New York
Current Conditions -  °F | °C
As of 11:35 AM on Wednesday 22 Oct 2014 (Local Time) from KMSV Reporting Station
Overcast Overcast  
Wind Chill:   Ceiling: 1700
Heat Index:   Visibility: 7mi
Dew Point:   Wind: 10mph
Humidity: 93%   Direction: 40°NE
Pressure: 30.02"   Gusts: NA
Location:  41.8°N, 74.83°W
Report Text: KMSV 221535Z AUTO 04009KT 7SM OVC017 09/08 A3002 RMK AO1
Loading
Personal Weather Stations






























Interactive Weather Map
Tropical Storm Tracking
New forecast layout! Learn more

10-Day Weather Forecast

Advertisements
Track Severe Weather on mobile